Terminal Aerodrome Forecast
Issued by NWS

Home | Current Version | Previous Version | Text Only | Print | Product List | Glossary On
Versions: 1 2 3 4 5 6 7 8 9 10 11 12
000
FTUS45 KGGW 222300
TAFSDY
TAF
KSDY 222322Z 2300/2324 06011KT P6SM FEW025 OVC035
      TEMPO 2300/2302 BKN020
     FM230300 06016KT P6SM -RA OVC025
     FM230900 02015G21KT 4SM RA BR OVC015
     FM231500 05015G25KT 3SM RA BR OVC004
      AMD LTD TO CLD VIS AND WIND=

USA.gov is the U.S. government's official web portal to all federal, state and local government web resources and services.